sensor_id;sensor_type;location;lat;lon;timestamp;pressure;altitude;pressure_sealevel;temperature;humidity
50282;BME280;36176;51.506;10.272;2023-12-14T00:00:57;98392.41;;;7.35;100.00
50282;BME280;36176;51.506;10.272;2023-12-14T00:03:24;98390.00;;;7.30;100.00
50282;BME280;36176;51.506;10.272;2023-12-14T00:05:51;98390.34;;;7.24;100.00
50282;BME280;36176;51.506;10.272;2023-12-14T00:08:18;98393.25;;;7.18;100.00
50282;BME280;36176;51.506;10.272;2023-12-14T00:10:45;98405.75;;;7.14;100.00
50282;BME280;36176;51.506;10.272;2023-12-14T00:13:12;98405.91;;;7.11;100.00
50282;BME280;36176;51.506;10.272;2023-12-14T00:15:39;98412.03;;;7.12;100.00
50282;BME280;36176;51.506;10.272;2023-12-14T00:18:09;98404.13;;;7.12;100.00
50282;BME280;36176;51.506;10.272;2023-12-14T00:20:37;98407.78;;;7.09;100.00
50282;BME280;36176;51.506;10.272;2023-12-14T00:23:04;98415.50;;;7.12;100.00
50282;BME280;36176;51.506;10.272;2023-12-14T00:25:31;98432.16;;;7.13;100.00
50282;BME280;36176;51.506;10.272;2023-12-14T00:27:58;98415.72;;;7.08;100.00
50282;BME280;36176;51.506;10.272;2023-12-14T00:30:25;98418.59;;;7.03;100.00
50282;BME280;36176;51.506;10.272;2023-12-14T00:32:52;98425.03;;;6.97;100.00
50282;BME280;36176;51.506;10.272;2023-12-14T00:35:21;98424.53;;;6.89;100.00
50282;BME280;36176;51.506;10.272;2023-12-14T00:37:48;98429.09;;;6.86;100.00
50282;BME280;36176;51.506;10.272;2023-12-14T00:40:15;98436.28;;;6.82;100.00
50282;BME280;36176;51.506;10.272;2023-12-14T00:42:42;98440.88;;;6.78;100.00
50282;BME280;36176;51.506;10.272;2023-12-14T00:45:09;98448.81;;;6.77;100.00
50282;BME280;36176;51.506;10.272;2023-12-14T00:47:37;98453.41;;;6.73;100.00
50282;BME280;36176;51.506;10.272;2023-12-14T00:50:04;98450.91;;;6.70;100.00
50282;BME280;36176;51.506;10.272;2023-12-14T00:52:31;98451.00;;;6.69;100.00
50282;BME280;36176;51.506;10.272;2023-12-14T00:55:01;98456.31;;;6.67;100.00
50282;BME280;36176;51.506;10.272;2023-12-14T00:57:28;98458.38;;;6.60;100.00
50282;BME280;36176;51.506;10.272;2023-12-14T00:59:55;98457.69;;;6.57;100.00
50282;BME280;36176;51.506;10.272;2023-12-14T01:02:22;98465.44;;;6.60;100.00
50282;BME280;36176;51.506;10.272;2023-12-14T01:04:50;98464.50;;;6.61;100.00
50282;BME280;36176;51.506;10.272;2023-12-14T01:07:17;98470.84;;;6.57;100.00
50282;BME280;36176;51.506;10.272;2023-12-14T01:09:44;98477.88;;;6.56;100.00
50282;BME280;36176;51.506;10.272;2023-12-14T01:12:11;98486.91;;;6.51;100.00
50282;BME280;36176;51.506;10.272;2023-12-14T01:14:40;98491.38;;;6.49;100.00
50282;BME280;36176;51.506;10.272;2023-12-14T01:17:07;98510.78;;;6.46;100.00
50282;BME280;36176;51.506;10.272;2023-12-14T01:19:34;98507.41;;;6.44;100.00
50282;BME280;36176;51.506;10.272;2023-12-14T01:22:03;98512.72;;;6.43;100.00
50282;BME280;36176;51.506;10.272;2023-12-14T01:24:30;98524.03;;;6.45;100.00
50282;BME280;36176;51.506;10.272;2023-12-14T01:26:57;98526.69;;;6.45;100.00
50282;BME280;36176;51.506;10.272;2023-12-14T01:29:24;98535.75;;;6.37;100.00
50282;BME280;36176;51.506;10.272;2023-12-14T01:31:51;98535.03;;;6.34;100.00
50282;BME280;36176;51.506;10.272;2023-12-14T01:34:18;98537.56;;;6.37;100.00
50282;BME280;36176;51.506;10.272;2023-12-14T01:36:45;98545.56;;;6.34;100.00
50282;BME280;36176;51.506;10.272;2023-12-14T01:39:12;98544.72;;;6.33;100.00
50282;BME280;36176;51.506;10.272;2023-12-14T01:41:39;98542.34;;;6.27;100.00
50282;BME280;36176;51.506;10.272;2023-12-14T01:44:06;98552.09;;;6.25;100.00
50282;BME280;36176;51.506;10.272;2023-12-14T01:46:33;98560.91;;;6.24;100.00
50282;BME280;36176;51.506;10.272;2023-12-14T01:49:07;98565.38;;;6.22;100.00
50282;BME280;36176;51.506;10.272;2023-12-14T01:51:34;98572.34;;;6.23;100.00
50282;BME280;36176;51.506;10.272;2023-12-14T01:54:01;98574.25;;;6.20;100.00
50282;BME280;36176;51.506;10.272;2023-12-14T01:56:28;98578.16;;;6.11;100.00
50282;BME280;36176;51.506;10.272;2023-12-14T01:58:55;98575.84;;;6.03;100.00
50282;BME280;36176;51.506;10.272;2023-12-14T02:03:55;98574.09;;;6.04;100.00
50282;BME280;36176;51.506;10.272;2023-12-14T02:06:22;98573.28;;;6.02;100.00
50282;BME280;36176;51.506;10.272;2023-12-14T02:08:49;98584.06;;;5.95;100.00
50282;BME280;36176;51.506;10.272;2023-12-14T02:11:18;98588.63;;;5.90;100.00
50282;BME280;36176;51.506;10.272;2023-12-14T02:13:45;98586.94;;;5.89;100.00
50282;BME280;36176;51.506;10.272;2023-12-14T02:16:12;98593.16;;;5.87;100.00
50282;BME280;36176;51.506;10.272;2023-12-14T02:18:39;98590.41;;;5.90;100.00
50282;BME280;36176;51.506;10.272;2023-12-14T02:21:06;98600.19;;;5.86;100.00
50282;BME280;36176;51.506;10.272;2023-12-14T02:23:33;98602.09;;;5.83;100.00
50282;BME280;36176;51.506;10.272;2023-12-14T02:26:03;98601.25;;;5.82;100.00
50282;BME280;36176;51.506;10.272;2023-12-14T02:28:30;98597.81;;;5.80;100.00
50282;BME280;36176;51.506;10.272;2023-12-14T02:30:57;98598.66;;;5.81;100.00
50282;BME280;36176;51.506;10.272;2023-12-14T02:33:24;98603.97;;;5.79;100.00
50282;BME280;36176;51.506;10.272;2023-12-14T02:35:52;98609.38;;;5.76;100.00
50282;BME280;36176;51.506;10.272;2023-12-14T02:38:20;98605.06;;;5.75;100.00
50282;BME280;36176;51.506;10.272;2023-12-14T02:40:47;98608.47;;;5.77;100.00
50282;BME280;36176;51.506;10.272;2023-12-14T02:43:14;98616.22;;;5.80;100.00
50282;BME280;36176;51.506;10.272;2023-12-14T02:45:41;98619.69;;;5.81;100.00
50282;BME280;36176;51.506;10.272;2023-12-14T02:48:08;98627.63;;;5.79;100.00
50282;BME280;36176;51.506;10.272;2023-12-14T02:50:37;98621.53;;;5.79;100.00
50282;BME280;36176;51.506;10.272;2023-12-14T02:53:04;98623.38;;;5.76;100.00
50282;BME280;36176;51.506;10.272;2023-12-14T02:55:31;98637.44;;;5.75;100.00
50282;BME280;36176;51.506;10.272;2023-12-14T02:57:58;98636.69;;;5.72;100.00
50282;BME280;36176;51.506;10.272;2023-12-14T03:00:25;98647.28;;;5.70;100.00
50282;BME280;36176;51.506;10.272;2023-12-14T03:02:53;98631.72;;;5.66;100.00
50282;BME280;36176;51.506;10.272;2023-12-14T03:05:20;98647.59;;;5.63;100.00
50282;BME280;36176;51.506;10.272;2023-12-14T03:07:47;98639.72;;;5.63;100.00
50282;BME280;36176;51.506;10.272;2023-12-14T03:10:14;98642.34;;;5.63;100.00
50282;BME280;36176;51.506;10.272;2023-12-14T03:12:41;98646.81;;;5.61;100.00
50282;BME280;36176;51.506;10.272;2023-12-14T03:15:08;98645.22;;;5.57;100.00
50282;BME280;36176;51.506;10.272;2023-12-14T03:17:36;98652.25;;;5.56;100.00
50282;BME280;36176;51.506;10.272;2023-12-14T03:20:03;98656.66;;;5.56;100.00
50282;BME280;36176;51.506;10.272;2023-12-14T03:22:30;98658.47;;;5.53;100.00
50282;BME280;36176;51.506;10.272;2023-12-14T03:24:58;98662.00;;;5.52;100.00
50282;BME280;36176;51.506;10.272;2023-12-14T03:27:25;98655.91;;;5.52;100.00
50282;BME280;36176;51.506;10.272;2023-12-14T03:29:52;98672.53;;;5.52;100.00
50282;BME280;36176;51.506;10.272;2023-12-14T03:32:19;98683.16;;;5.49;100.00
50282;BME280;36176;51.506;10.272;2023-12-14T03:34:46;98688.41;;;5.49;100.00
50282;BME280;36176;51.506;10.272;2023-12-14T03:37:13;98691.97;;;5.48;100.00
50282;BME280;36176;51.506;10.272;2023-12-14T03:39:40;98694.66;;;5.47;100.00
50282;BME280;36176;51.506;10.272;2023-12-14T03:42:07;98707.81;;;5.45;100.00
50282;BME280;36176;51.506;10.272;2023-12-14T03:44:34;98705.28;;;5.44;100.00
50282;BME280;36176;51.506;10.272;2023-12-14T03:47:01;98713.22;;;5.42;100.00
50282;BME280;36176;51.506;10.272;2023-12-14T03:49:28;98711.69;;;5.37;100.00
50282;BME280;36176;51.506;10.272;2023-12-14T03:51:55;98724.91;;;5.33;100.00
50282;BME280;36176;51.506;10.272;2023-12-14T03:54:22;98729.44;;;5.30;100.00
50282;BME280;36176;51.506;10.272;2023-12-14T03:56:49;98737.44;;;5.27;100.00
50282;BME280;36176;51.506;10.272;2023-12-14T03:59:16;98739.19;;;5.26;100.00
50282;BME280;36176;51.506;10.272;2023-12-14T04:01:43;98750.47;;;5.30;100.00
50282;BME280;36176;51.506;10.272;2023-12-14T04:04:10;98754.09;;;5.26;100.00
50282;BME280;36176;51.506;10.272;2023-12-14T04:06:37;98759.47;;;5.23;100.00
50282;BME280;36176;51.506;10.272;2023-12-14T04:09:04;98760.56;;;5.17;100.00
50282;BME280;36176;51.506;10.272;2023-12-14T04:11:31;98762.44;;;5.14;100.00
50282;BME280;36176;51.506;10.272;2023-12-14T04:13:58;98773.91;;;5.11;100.00
50282;BME280;36176;51.506;10.272;2023-12-14T04:16:25;98766.16;;;5.08;100.00
50282;BME280;36176;51.506;10.272;2023-12-14T04:18:55;98772.28;;;5.07;100.00
50282;BME280;36176;51.506;10.272;2023-12-14T04:21:23;98769.75;;;5.05;100.00
50282;BME280;36176;51.506;10.272;2023-12-14T04:23:52;98768.94;;;5.03;100.00
50282;BME280;36176;51.506;10.272;2023-12-14T04:26:19;98776.84;;;5.02;100.00
50282;BME280;36176;51.506;10.272;2023-12-14T04:28:46;98789.00;;;5.04;100.00
50282;BME280;36176;51.506;10.272;2023-12-14T04:31:13;98784.69;;;5.03;100.00
50282;BME280;36176;51.506;10.272;2023-12-14T04:33:40;98786.50;;;5.01;100.00
50282;BME280;36176;51.506;10.272;2023-12-14T04:36:07;98785.81;;;4.96;100.00
50282;BME280;36176;51.506;10.272;2023-12-14T04:38:35;98794.66;;;4.94;100.00
50282;BME280;36176;51.506;10.272;2023-12-14T04:41:02;98798.28;;;4.89;100.00
50282;BME280;36176;51.506;10.272;2023-12-14T04:43:31;98805.38;;;4.87;100.00
50282;BME280;36176;51.506;10.272;2023-12-14T04:45:59;98806.44;;;4.82;100.00
50282;BME280;36176;51.506;10.272;2023-12-14T04:48:26;98811.84;;;4.77;100.00
50282;BME280;36176;51.506;10.272;2023-12-14T04:50:53;98824.19;;;4.74;100.00
50282;BME280;36176;51.506;10.272;2023-12-14T04:53:21;98829.56;;;4.71;100.00
50282;BME280;36176;51.506;10.272;2023-12-14T04:55:48;98836.63;;;4.68;100.00
50282;BME280;36176;51.506;10.272;2023-12-14T04:58:15;98833.19;;;4.66;100.00
50282;BME280;36176;51.506;10.272;2023-12-14T05:00:45;98843.78;;;4.63;100.00
50282;BME280;36176;51.506;10.272;2023-12-14T05:03:12;98849.22;;;4.57;100.00
50282;BME280;36176;51.506;10.272;2023-12-14T05:05:40;98846.81;;;4.51;100.00
50282;BME280;36176;51.506;10.272;2023-12-14T05:08:07;98848.63;;;4.49;100.00
50282;BME280;36176;51.506;10.272;2023-12-14T05:10:34;98847.78;;;4.48;100.00
50282;BME280;36176;51.506;10.272;2023-12-14T05:13:03;98856.47;;;4.51;100.00
50282;BME280;36176;51.506;10.272;2023-12-14T05:15:30;98855.59;;;4.50;100.00
50282;BME280;36176;51.506;10.272;2023-12-14T05:17:57;98857.47;;;4.46;100.00
50282;BME280;36176;51.506;10.272;2023-12-14T05:20:25;98865.38;;;4.45;100.00
50282;BME280;36176;51.506;10.272;2023-12-14T05:22:52;98874.06;;;4.47;100.00
50282;BME280;36176;51.506;10.272;2023-12-14T05:25:19;98882.00;;;4.45;100.00
50282;BME280;36176;51.506;10.272;2023-12-14T05:27:46;98885.63;;;4.41;100.00
50282;BME280;36176;51.506;10.272;2023-12-14T05:30:13;98889.28;;;4.36;100.00
50282;BME280;36176;51.506;10.272;2023-12-14T05:32:41;98900.72;;;4.33;100.00
50282;BME280;36176;51.506;10.272;2023-12-14T05:35:09;98915.72;;;4.28;100.00
50282;BME280;36176;51.506;10.272;2023-12-14T05:37:38;98921.09;;;4.25;100.00
50282;BME280;36176;51.506;10.272;2023-12-14T05:40:06;98918.50;;;4.23;100.00
50282;BME280;36176;51.506;10.272;2023-12-14T05:42:33;98928.22;;;4.20;100.00
50282;BME280;36176;51.506;10.272;2023-12-14T05:45:01;98929.13;;;4.19;100.00
50282;BME280;36176;51.506;10.272;2023-12-14T05:47:28;98927.38;;;4.19;100.00
50282;BME280;36176;51.506;10.272;2023-12-14T05:49:55;98937.00;;;4.19;100.00
50282;BME280;36176;51.506;10.272;2023-12-14T05:52:25;98943.19;;;4.16;100.00
50282;BME280;36176;51.506;10.272;2023-12-14T05:54:53;98951.88;;;4.18;100.00
50282;BME280;36176;51.506;10.272;2023-12-14T05:57:20;98941.38;;;4.18;100.00
50282;BME280;36176;51.506;10.272;2023-12-14T05:59:50;98953.59;;;4.19;100.00
50282;BME280;36176;51.506;10.272;2023-12-14T06:02:17;98949.22;;;4.20;100.00
50282;BME280;36176;51.506;10.272;2023-12-14T06:04:44;98953.59;;;4.19;100.00
50282;BME280;36176;51.506;10.272;2023-12-14T06:07:14;98963.28;;;4.17;100.00
50282;BME280;36176;51.506;10.272;2023-12-14T06:09:41;98969.53;;;4.12;100.00
50282;BME280;36176;51.506;10.272;2023-12-14T06:12:08;98972.31;;;4.07;100.00
50282;BME280;36176;51.506;10.272;2023-12-14T06:14:36;98977.63;;;4.04;100.00
50282;BME280;36176;51.506;10.272;2023-12-14T06:17:03;98978.53;;;4.03;100.00
50282;BME280;36176;51.506;10.272;2023-12-14T06:19:30;98989.91;;;4.02;100.00
50282;BME280;36176;51.506;10.272;2023-12-14T06:21:57;98992.50;;;4.03;100.00
50282;BME280;36176;51.506;10.272;2023-12-14T06:24:24;99004.66;;;4.06;100.00
50282;BME280;36176;51.506;10.272;2023-12-14T06:26:51;98993.34;;;4.04;100.00
50282;BME280;36176;51.506;10.272;2023-12-14T06:29:19;99000.28;;;4.07;100.00
50282;BME280;36176;51.506;10.272;2023-12-14T06:31:46;99008.09;;;4.08;100.00
50282;BME280;36176;51.506;10.272;2023-12-14T06:34:13;99015.16;;;4.06;100.00
50282;BME280;36176;51.506;10.272;2023-12-14T06:36:46;99016.19;;;4.00;100.00
50282;BME280;36176;51.506;10.272;2023-12-14T06:39:13;99026.59;;;4.03;100.00
50282;BME280;36176;51.506;10.272;2023-12-14T06:41:48;99023.03;;;4.04;100.00
50282;BME280;36176;51.506;10.272;2023-12-14T06:44:15;99020.41;;;4.06;100.00
50282;BME280;36176;51.506;10.272;2023-12-14T06:46:42;99026.56;;;4.05;100.00
50282;BME280;36176;51.506;10.272;2023-12-14T06:49:09;99023.97;;;4.03;100.00
50282;BME280;36176;51.506;10.272;2023-12-14T06:51:37;99021.47;;;3.99;100.00
50282;BME280;36176;51.506;10.272;2023-12-14T06:54:04;99026.81;;;3.96;100.00
50282;BME280;36176;51.506;10.272;2023-12-14T06:56:31;99037.19;;;3.99;100.00
50282;BME280;36176;51.506;10.272;2023-12-14T06:58:58;99045.84;;;4.02;100.00
50282;BME280;36176;51.506;10.272;2023-12-14T07:01:25;99043.34;;;3.98;100.00
50282;BME280;36176;51.506;10.272;2023-12-14T07:03:52;99048.72;;;3.93;100.00
50282;BME280;36176;51.506;10.272;2023-12-14T07:06:19;99050.50;;;3.91;100.00
50282;BME280;36176;51.506;10.272;2023-12-14T07:08:48;99062.75;;;3.91;100.00
50282;BME280;36176;51.506;10.272;2023-12-14T07:11:15;99063.66;;;3.90;100.00
50282;BME280;36176;51.506;10.272;2023-12-14T07:13:42;99067.13;;;3.90;100.00
50282;BME280;36176;51.506;10.272;2023-12-14T07:16:10;99069.69;;;3.93;100.00
50282;BME280;36176;51.506;10.272;2023-12-14T07:18:40;99075.75;;;3.95;100.00
50282;BME280;36176;51.506;10.272;2023-12-14T07:21:08;99081.03;;;3.94;100.00
50282;BME280;36176;51.506;10.272;2023-12-14T07:23:36;99080.16;;;3.93;100.00
50282;BME280;36176;51.506;10.272;2023-12-14T07:26:03;99087.19;;;3.93;100.00
50282;BME280;36176;51.506;10.272;2023-12-14T07:28:33;99098.53;;;3.93;100.00
50282;BME280;36176;51.506;10.272;2023-12-14T07:31:01;99094.13;;;3.94;100.00
50282;BME280;36176;51.506;10.272;2023-12-14T07:33:28;99102.84;;;3.94;100.00
50282;BME280;36176;51.506;10.272;2023-12-14T07:35:56;99116.88;;;3.93;100.00
50282;BME280;36176;51.506;10.272;2023-12-14T07:38:23;99115.13;;;3.92;100.00
50282;BME280;36176;51.506;10.272;2023-12-14T07:40:50;99127.47;;;3.89;100.00
50282;BME280;36176;51.506;10.272;2023-12-14T07:43:18;99133.66;;;3.86;100.00
50282;BME280;36176;51.506;10.272;2023-12-14T07:45:45;99141.53;;;3.84;100.00
50282;BME280;36176;51.506;10.272;2023-12-14T07:48:12;99136.38;;;3.81;100.00
50282;BME280;36176;51.506;10.272;2023-12-14T07:50:40;99145.94;;;3.82;100.00
50282;BME280;36176;51.506;10.272;2023-12-14T07:53:07;99152.19;;;3.78;100.00
50282;BME280;36176;51.506;10.272;2023-12-14T07:55:34;99155.69;;;3.77;100.00
50282;BME280;36176;51.506;10.272;2023-12-14T07:58:01;99154.00;;;3.76;100.00
50282;BME280;36176;51.506;10.272;2023-12-14T08:00:32;99166.19;;;3.77;100.00
50282;BME280;36176;51.506;10.272;2023-12-14T08:02:59;99163.63;;;3.74;100.00
50282;BME280;36176;51.506;10.272;2023-12-14T08:05:26;99161.03;;;3.74;100.00
50282;BME280;36176;51.506;10.272;2023-12-14T08:07:55;99168.78;;;3.79;100.00
50282;BME280;36176;51.506;10.272;2023-12-14T08:10:23;99173.94;;;3.82;100.00
50282;BME280;36176;51.506;10.272;2023-12-14T08:12:50;99179.09;;;3.85;100.00
50282;BME280;36176;51.506;10.272;2023-12-14T08:15:17;99184.22;;;3.90;100.00
50282;BME280;36176;51.506;10.272;2023-12-14T08:17:44;99190.19;;;3.95;100.00
50282;BME280;36176;51.506;10.272;2023-12-14T08:20:11;99205.00;;;3.97;100.00
50282;BME280;36176;51.506;10.272;2023-12-14T08:22:38;99196.22;;;4.00;100.00
50282;BME280;36176;51.506;10.272;2023-12-14T08:25:06;99197.00;;;4.02;100.00
50282;BME280;36176;51.506;10.272;2023-12-14T08:27:33;99199.50;;;4.08;100.00
50282;BME280;36176;51.506;10.272;2023-12-14T08:30:00;99208.06;;;4.15;100.00
50282;BME280;36176;51.506;10.272;2023-12-14T08:32:27;99214.28;;;4.11;100.00
50282;BME280;36176;51.506;10.272;2023-12-14T08:34:54;99220.38;;;4.11;100.00
50282;BME280;36176;51.506;10.272;2023-12-14T08:37:21;99216.88;;;4.12;100.00
50282;BME280;36176;51.506;10.272;2023-12-14T08:39:48;99240.63;;;4.06;100.00
50282;BME280;36176;51.506;10.272;2023-12-14T08:42:19;99239.03;;;4.00;100.00
50282;BME280;36176;51.506;10.272;2023-12-14T08:44:46;99251.19;;;4.03;100.00
50282;BME280;36176;51.506;10.272;2023-12-14T08:47:14;99259.88;;;4.05;100.00
50282;BME280;36176;51.506;10.272;2023-12-14T08:49:42;99264.25;;;4.04;100.00
50282;BME280;36176;51.506;10.272;2023-12-14T08:52:09;99269.47;;;4.04;100.00
50282;BME280;36176;51.506;10.272;2023-12-14T08:54:36;99269.47;;;4.06;100.00
50282;BME280;36176;51.506;10.272;2023-12-14T08:57:03;99275.75;;;3.99;100.00
50282;BME280;36176;51.506;10.272;2023-12-14T08:59:30;99278.44;;;3.96;100.00
50282;BME280;36176;51.506;10.272;2023-12-14T09:01:57;99281.84;;;3.99;100.00
50282;BME280;36176;51.506;10.272;2023-12-14T09:04:25;99289.75;;;3.98;100.00
50282;BME280;36176;51.506;10.272;2023-12-14T09:06:53;99299.34;;;3.99;100.00
50282;BME280;36176;51.506;10.272;2023-12-14T09:09:20;99301.97;;;3.99;100.00
50282;BME280;36176;51.506;10.272;2023-12-14T09:11:48;99306.44;;;3.95;100.00
50282;BME280;36176;51.506;10.272;2023-12-14T09:14:17;99311.78;;;3.91;100.00
50282;BME280;36176;51.506;10.272;2023-12-14T09:16:45;99318.72;;;3.93;100.00
50282;BME280;36176;51.506;10.272;2023-12-14T09:19:12;99326.59;;;3.92;100.00
50282;BME280;36176;51.506;10.272;2023-12-14T09:21:39;99330.25;;;3.84;100.00
50282;BME280;36176;51.506;10.272;2023-12-14T09:24:12;99337.28;;;3.82;100.00
50282;BME280;36176;51.506;10.272;2023-12-14T09:26:40;99329.38;;;3.84;100.00
50282;BME280;36176;51.506;10.272;2023-12-14T09:29:07;99345.09;;;3.86;100.00
50282;BME280;36176;51.506;10.272;2023-12-14T09:31:34;99352.03;;;3.87;100.00
50282;BME280;36176;51.506;10.272;2023-12-14T09:34:02;99346.69;;;3.91;100.00
50282;BME280;36176;51.506;10.272;2023-12-14T09:36:29;99351.78;;;3.97;100.00
50282;BME280;36176;51.506;10.272;2023-12-14T09:38:56;99354.47;;;3.96;100.00
50282;BME280;36176;51.506;10.272;2023-12-14T09:41:23;99362.25;;;3.99;100.00
50282;BME280;36176;51.506;10.272;2023-12-14T09:43:52;99363.94;;;4.01;100.00
50282;BME280;36176;51.506;10.272;2023-12-14T09:46:20;99370.09;;;4.00;100.00
50282;BME280;36176;51.506;10.272;2023-12-14T09:48:50;99377.16;;;3.97;100.00
50282;BME280;36176;51.506;10.272;2023-12-14T09:51:17;99377.22;;;3.94;100.00
50282;BME280;36176;51.506;10.272;2023-12-14T09:53:44;99374.63;;;3.92;100.00
50282;BME280;36176;51.506;10.272;2023-12-14T09:56:11;99379.88;;;3.92;100.00
50282;BME280;36176;51.506;10.272;2023-12-14T09:58:39;99378.09;;;3.94;100.00
50282;BME280;36176;51.506;10.272;2023-12-14T10:01:32;99387.63;;;3.97;100.00
50282;BME280;36176;51.506;10.272;2023-12-14T10:04:10;99393.75;;;3.97;100.00
50282;BME280;36176;51.506;10.272;2023-12-14T10:06:38;99399.81;;;3.99;100.00
50282;BME280;36176;51.506;10.272;2023-12-14T10:09:06;99398.97;;;3.97;100.00
50282;BME280;36176;51.506;10.272;2023-12-14T10:11:34;99399.81;;;3.99;100.00
50282;BME280;36176;51.506;10.272;2023-12-14T10:14:01;99392.84;;;4.00;100.00
50282;BME280;36176;51.506;10.272;2023-12-14T10:16:32;99406.06;;;3.94;100.00
50282;BME280;36176;51.506;10.272;2023-12-14T10:19:00;99402.63;;;3.90;100.00
50282;BME280;36176;51.506;10.272;2023-12-14T10:21:28;99407.06;;;3.88;100.00
50282;BME280;36176;51.506;10.272;2023-12-14T10:23:55;99410.53;;;3.89;100.00
50282;BME280;36176;51.506;10.272;2023-12-14T10:26:24;99413.25;;;3.84;100.00
50282;BME280;36176;51.506;10.272;2023-12-14T10:28:54;99424.66;;;3.81;100.00
50282;BME280;36176;51.506;10.272;2023-12-14T10:31:21;99432.56;;;3.80;100.00
50282;BME280;36176;51.506;10.272;2023-12-14T10:33:49;99435.22;;;3.78;100.00
50282;BME280;36176;51.506;10.272;2023-12-14T10:36:21;99430.00;;;3.77;100.00
50282;BME280;36176;51.506;10.272;2023-12-14T10:38:52;99439.63;;;3.76;100.00
50282;BME280;36176;51.506;10.272;2023-12-14T10:41:23;99441.25;;;3.82;100.00
50282;BME280;36176;51.506;10.272;2023-12-14T10:43:54;99441.25;;;3.83;100.00
50282;BME280;36176;51.506;10.272;2023-12-14T10:46:42;99433.47;;;3.77;100.00
50282;BME280;36176;51.506;10.272;2023-12-14T10:49:10;99448.38;;;3.75;100.00
50282;BME280;36176;51.506;10.272;2023-12-14T10:51:37;99444.91;;;3.73;100.00
50282;BME280;36176;51.506;10.272;2023-12-14T10:54:04;99444.13;;;3.70;100.00
50282;BME280;36176;51.506;10.272;2023-12-14T10:56:31;99450.16;;;3.73;100.00
50282;BME280;36176;51.506;10.272;2023-12-14T10:58:58;99444.06;;;3.73;100.00
50282;BME280;36176;51.506;10.272;2023-12-14T11:01:26;99451.00;;;3.75;100.00
50282;BME280;36176;51.506;10.272;2023-12-14T11:03:58;99453.59;;;3.77;100.00
50282;BME280;36176;51.506;10.272;2023-12-14T11:06:27;99444.81;;;3.78;100.00
50282;BME280;36176;51.506;10.272;2023-12-14T11:09:01;99453.50;;;3.81;100.00
50282;BME280;36176;51.506;10.272;2023-12-14T11:11:29;99458.66;;;3.84;100.00
50282;BME280;36176;51.506;10.272;2023-12-14T11:13:56;99462.13;;;3.88;100.00
50282;BME280;36176;51.506;10.272;2023-12-14T11:16:26;99469.88;;;3.93;100.00
50282;BME280;36176;51.506;10.272;2023-12-14T11:24:35;99483.78;;;3.95;100.00
50282;BME280;36176;51.506;10.272;2023-12-14T11:27:08;99489.94;;;3.94;100.00
50282;BME280;36176;51.506;10.272;2023-12-14T11:29:37;99494.28;;;3.95;100.00
50282;BME280;36176;51.506;10.272;2023-12-14T11:32:06;99497.81;;;3.94;100.00
50282;BME280;36176;51.506;10.272;2023-12-14T11:34:33;99499.59;;;3.92;100.00
50282;BME280;36176;51.506;10.272;2023-12-14T11:37:00;99499.66;;;3.89;100.00
50282;BME280;36176;51.506;10.272;2023-12-14T11:39:31;99504.16;;;3.82;100.00
50282;BME280;36176;51.506;10.272;2023-12-14T11:42:07;99511.19;;;3.80;100.00
50282;BME280;36176;51.506;10.272;2023-12-14T11:44:34;99513.88;;;3.75;100.00
50282;BME280;36176;51.506;10.272;2023-12-14T11:47:01;99515.66;;;3.73;100.00
50282;BME280;36176;51.506;10.272;2023-12-14T11:49:29;99520.09;;;3.71;100.00
50282;BME280;36176;51.506;10.272;2023-12-14T11:51:56;99528.00;;;3.68;100.00
50282;BME280;36176;51.506;10.272;2023-12-14T11:54:23;99521.00;;;3.69;100.00
50282;BME280;36176;51.506;10.272;2023-12-14T11:56:50;99527.97;;;3.71;100.00
50282;BME280;36176;51.506;10.272;2023-12-14T11:59:18;99527.97;;;3.71;100.00
50282;BME280;36176;51.506;10.272;2023-12-14T12:01:58;99522.59;;;3.77;100.00
50282;BME280;36176;51.506;10.272;2023-12-14T12:04:27;99529.56;;;3.78;100.00
50282;BME280;36176;51.506;10.272;2023-12-14T12:07:05;99529.53;;;3.80;100.00
50282;BME280;36176;51.506;10.272;2023-12-14T12:09:37;99526.97;;;3.78;100.00
50282;BME280;36176;51.506;10.272;2023-12-14T12:12:06;99525.09;;;3.83;100.00
50282;BME280;36176;51.506;10.272;2023-12-14T12:14:34;99533.69;;;3.90;100.00
50282;BME280;36176;51.506;10.272;2023-12-14T12:17:02;99533.59;;;3.96;100.00
50282;BME280;36176;51.506;10.272;2023-12-14T12:19:34;99536.13;;;4.01;100.00
50282;BME280;36176;51.506;10.272;2023-12-14T12:22:02;99536.19;;;3.98;100.00
50282;BME280;36176;51.506;10.272;2023-12-14T12:24:29;99534.34;;;4.03;100.00
50282;BME280;36176;51.506;10.272;2023-12-14T12:27:00;99532.41;;;4.11;100.00
50282;BME280;36176;51.506;10.272;2023-12-14T12:29:27;99535.00;;;4.14;100.00
50282;BME280;36176;51.506;10.272;2023-12-14T12:31:54;99544.47;;;4.21;100.00
50282;BME280;36176;51.506;10.272;2023-12-14T12:34:21;99540.88;;;4.25;100.00
50282;BME280;36176;51.506;10.272;2023-12-14T12:36:51;99545.34;;;4.22;100.00
50282;BME280;36176;51.506;10.272;2023-12-14T12:39:18;99547.03;;;4.23;100.00
50282;BME280;36176;51.506;10.272;2023-12-14T12:41:45;99557.47;;;4.26;100.00
50282;BME280;36176;51.506;10.272;2023-12-14T12:44:12;99553.91;;;4.30;100.00
50282;BME280;36176;51.506;10.272;2023-12-14T12:46:39;99561.81;;;4.29;100.00
50282;BME280;36176;51.506;10.272;2023-12-14T12:49:07;99565.22;;;4.32;100.00
50282;BME280;36176;51.506;10.272;2023-12-14T12:51:34;99567.91;;;4.29;100.00
50282;BME280;36176;51.506;10.272;2023-12-14T12:54:01;99566.31;;;4.22;100.00
50282;BME280;36176;51.506;10.272;2023-12-14T12:56:39;99577.72;;;4.19;100.00
50282;BME280;36176;51.506;10.272;2023-12-14T12:59:06;99580.34;;;4.19;100.00
50282;BME280;36176;51.506;10.272;2023-12-14T13:01:36;99582.13;;;4.17;100.00